createdAt,value
2023-04-09T00:00:16.596Z,8.00
2023-04-09T00:03:27.673Z,8.20
2023-04-09T00:06:20.360Z,8.40
2023-04-09T00:09:19.275Z,8.50
2023-04-09T00:12:17.612Z,8.50
2023-04-09T00:15:24.068Z,8.60
2023-04-09T00:18:21.312Z,8.40
2023-04-09T00:21:12.084Z,8.70
2023-04-09T00:24:05.282Z,8.90
2023-04-09T00:26:58.184Z,8.00
2023-04-09T00:29:53.884Z,8.20
2023-04-09T00:32:45.159Z,7.50
2023-04-09T00:35:37.314Z,7.70
2023-04-09T00:38:30.788Z,8.00
2023-04-09T00:41:23.058Z,7.90
2023-04-09T00:44:16.396Z,8.80
2023-04-09T00:47:08.571Z,8.90
2023-04-09T00:49:59.429Z,8.90
2023-04-09T00:52:51.531Z,8.40
2023-04-09T00:55:43.231Z,9.20
2023-04-09T00:58:36.964Z,8.70
2023-04-09T01:01:28.038Z,9.50
2023-04-09T01:04:18.458Z,9.40
2023-04-09T01:07:12.082Z,9.00
2023-04-09T01:10:06.410Z,9.80
2023-04-09T01:13:06.097Z,10.50
2023-04-09T01:16:01.105Z,10.40
2023-04-09T01:18:53.847Z,11.30
2023-04-09T01:21:45.386Z,10.80
2023-04-09T01:24:43.362Z,11.80
2023-04-09T01:27:44.248Z,11.80
2023-04-09T01:30:35.402Z,11.50
2023-04-09T01:33:28.894Z,11.60
2023-04-09T01:36:21.552Z,11.40
2023-04-09T01:39:14.667Z,12.50
2023-04-09T01:42:09.715Z,11.70
2023-04-09T01:45:06.512Z,12.50
2023-04-09T01:47:57.469Z,12.00
2023-04-09T01:50:54.319Z,12.30
2023-04-09T01:53:49.406Z,13.40
2023-04-09T01:56:48.274Z,13.50
2023-04-09T01:59:42.208Z,13.30
2023-04-09T02:02:36.832Z,13.60
2023-04-09T02:05:32.208Z,13.70
2023-04-09T02:08:24.168Z,13.10
2023-04-09T02:11:17.059Z,12.80
2023-04-09T02:14:11.471Z,11.60
2023-04-09T02:17:11.040Z,12.00
2023-04-09T02:20:01.775Z,11.60
2023-04-09T02:22:54.991Z,12.00
2023-04-09T02:25:46.217Z,11.50
2023-04-09T02:28:37.951Z,11.60
2023-04-09T02:31:33.139Z,11.50
2023-04-09T02:34:25.907Z,11.60
2023-04-09T02:37:19.432Z,11.70
2023-04-09T02:40:15.405Z,11.70
2023-04-09T02:43:08.560Z,11.50
2023-04-09T02:45:59.314Z,11.90
2023-04-09T02:48:52.052Z,11.80
2023-04-09T02:51:47.894Z,12.40
2023-04-09T02:54:38.559Z,13.00
2023-04-09T02:57:30.577Z,7.90
2023-04-09T03:00:21.309Z,13.40
2023-04-09T03:03:13.593Z,13.60
2023-04-09T03:06:05.866Z,13.70
2023-04-09T03:08:56.798Z,14.10
2023-04-09T03:11:48.898Z,13.40
2023-04-09T03:14:40.133Z,14.50
2023-04-09T03:17:32.216Z,14.00
2023-04-09T03:20:25.223Z,13.80
2023-04-09T03:23:16.236Z,14.50
2023-04-09T03:26:10.250Z,14.00
2023-04-09T03:29:11.796Z,15.60
2023-04-09T03:32:06.524Z,14.80
2023-04-09T03:34:57.933Z,14.80
2023-04-09T03:37:55.858Z,15.00
2023-04-09T03:40:46.799Z,15.10
2023-04-09T03:43:42.339Z,15.40
2023-04-09T03:46:38.727Z,15.00
2023-04-09T03:49:32.046Z,15.90
2023-04-09T03:52:29.694Z,15.40
2023-04-09T03:55:28.301Z,8.10
2023-04-09T03:58:20.152Z,16.00
2023-04-09T04:01:14.551Z,15.70
2023-04-09T04:04:16.728Z,15.80
2023-04-09T04:07:19.088Z,15.80
2023-04-09T04:10:27.436Z,16.30
2023-04-09T04:13:18.598Z,17.20
2023-04-09T04:16:15.474Z,17.30
2023-04-09T04:19:07.897Z,17.80
2023-04-09T04:22:03.480Z,17.70
2023-04-09T04:24:57.427Z,17.50
2023-04-09T04:27:49.167Z,17.70
2023-04-09T04:30:43.887Z,17.90
2023-04-09T04:33:39.236Z,18.40
2023-04-09T04:36:34.373Z,17.80
2023-04-09T04:39:26.715Z,19.30
2023-04-09T04:42:25.930Z,18.50
2023-04-09T04:45:17.838Z,18.70
2023-04-09T04:48:13.344Z,18.80
2023-04-09T04:51:04.360Z,18.70
2023-04-09T04:54:01.131Z,18.80
2023-04-09T04:56:54.584Z,18.90
2023-04-09T05:00:08.926Z,19.90
2023-04-09T05:03:00.424Z,20.10
2023-04-09T05:06:27.087Z,20.30
2023-04-09T05:09:22.484Z,20.90
2023-04-09T05:15:23.194Z,21.40
2023-04-09T05:18:15.355Z,22.30
2023-04-09T05:21:06.623Z,21.70
2023-04-09T05:23:59.648Z,22.50
2023-04-09T05:26:58.092Z,23.40
2023-04-09T05:29:52.665Z,22.60
2023-04-09T05:32:43.555Z,23.00
2023-04-09T05:35:40.273Z,22.80
2023-04-09T05:38:32.807Z,23.00
2023-04-09T05:41:23.741Z,23.70
2023-04-09T05:44:30.061Z,24.10
2023-04-09T05:47:28.950Z,23.90
2023-04-09T05:50:47.533Z,24.30
2023-04-09T05:53:45.897Z,25.40
2023-04-09T05:56:38.415Z,26.10
2023-04-09T05:59:31.225Z,26.20
2023-04-09T06:02:27.257Z,26.40
2023-04-09T06:05:18.193Z,26.40
2023-04-09T06:08:14.167Z,26.80
2023-04-09T06:11:07.930Z,26.40
2023-04-09T06:13:58.639Z,27.70
2023-04-09T06:16:49.818Z,28.30
2023-04-09T06:19:40.272Z,28.40
2023-04-09T06:22:32.527Z,29.40
2023-04-09T06:25:23.520Z,30.00
2023-04-09T06:28:18.236Z,30.10
2023-04-09T06:31:12.433Z,30.20
2023-04-09T06:34:06.528Z,30.60
2023-04-09T06:36:57.505Z,30.90
2023-04-09T06:40:00.504Z,31.30
2023-04-09T06:42:52.116Z,32.00
2023-04-09T06:45:53.853Z,31.50
2023-04-09T06:48:44.825Z,31.80
2023-04-09T06:51:37.424Z,31.90
2023-04-09T06:54:28.437Z,31.20
2023-04-09T06:57:25.191Z,30.50
2023-04-09T07:00:20.419Z,30.90
2023-04-09T07:03:13.925Z,31.10
2023-04-09T07:06:04.945Z,32.70
2023-04-09T07:08:55.904Z,32.50
2023-04-09T07:11:47.740Z,33.40
2023-04-09T07:14:38.941Z,32.70
2023-04-09T07:17:32.151Z,32.90
2023-04-09T07:20:25.392Z,33.00
2023-04-09T07:23:18.680Z,35.80
2023-04-09T07:26:10.733Z,36.00
2023-04-09T07:29:03.732Z,35.30
2023-04-09T07:31:55.167Z,36.90
2023-04-09T07:34:48.652Z,36.10
2023-04-09T07:37:41.899Z,35.00
2023-04-09T07:40:34.011Z,34.30
2023-04-09T07:43:26.263Z,34.60
2023-04-09T07:46:24.579Z,34.20
2023-04-09T07:52:08.786Z,32.90
2023-04-09T07:55:05.059Z,33.50
2023-04-09T07:58:00.149Z,33.00
2023-04-09T08:00:53.059Z,37.90
2023-04-09T08:03:44.551Z,32.80
2023-04-09T08:06:36.163Z,31.50
2023-04-09T08:09:27.063Z,32.20
2023-04-09T08:12:17.566Z,30.30
2023-04-09T08:15:10.162Z,29.70
2023-04-09T08:18:03.139Z,28.20
2023-04-09T08:20:53.827Z,26.80
2023-04-09T08:23:44.506Z,28.40
2023-04-09T08:26:35.280Z,26.00
2023-04-09T08:29:25.903Z,25.50
2023-04-09T08:32:16.557Z,24.10
2023-04-09T08:35:09.163Z,20.90
2023-04-09T08:37:59.823Z,19.80
2023-04-09T08:40:50.319Z,21.90
2023-04-09T08:43:56.229Z,20.70
2023-04-09T08:46:48.802Z,21.70
2023-04-09T08:49:39.534Z,21.80
2023-04-09T08:52:35.589Z,19.30
2023-04-09T08:55:26.177Z,18.20
2023-04-09T08:58:17.157Z,18.60
2023-04-09T09:01:08.040Z,20.10
2023-04-09T09:04:00.723Z,18.40
2023-04-09T09:06:51.211Z,19.20
2023-04-09T09:09:54.464Z,19.00
2023-04-09T09:12:44.986Z,18.80
2023-04-09T09:15:35.721Z,17.40
2023-04-09T09:18:40.497Z,17.70
2023-04-09T09:21:31.748Z,21.50
2023-04-09T09:24:22.219Z,26.60
2023-04-09T09:27:12.991Z,27.30
2023-04-09T09:30:03.720Z,27.10
2023-04-09T09:32:55.675Z,26.00
2023-04-09T09:35:54.149Z,27.20
2023-04-09T09:41:47.387Z,27.30
2023-04-09T09:44:38.357Z,25.80
2023-04-09T09:47:29.548Z,27.70
2023-04-09T09:50:20.130Z,26.20
2023-04-09T09:53:12.010Z,27.10
2023-04-09T09:56:03.187Z,30.90
2023-04-09T09:58:56.119Z,29.10
2023-04-09T10:01:47.306Z,25.00
2023-04-09T10:04:38.275Z,22.50
2023-04-09T10:07:28.735Z,23.40
2023-04-09T10:10:19.643Z,25.00
2023-04-09T10:13:11.064Z,22.20
2023-04-09T10:16:01.950Z,23.80
2023-04-09T10:18:52.656Z,24.10
2023-04-09T10:21:47.693Z,24.40
2023-04-09T10:24:38.699Z,27.20
2023-04-09T10:27:29.207Z,27.50
2023-04-09T10:30:36.711Z,27.40
2023-04-09T10:33:29.009Z,30.10
2023-04-09T10:36:22.423Z,29.70
2023-04-09T10:39:15.807Z,29.60
2023-04-09T10:42:12.775Z,27.40
2023-04-09T10:45:11.239Z,28.60
2023-04-09T10:48:03.998Z,27.90
2023-04-09T10:50:54.532Z,28.10
2023-04-09T10:53:45.044Z,27.90
2023-04-09T10:56:35.670Z,26.10
2023-04-09T10:59:27.074Z,26.00
2023-04-09T11:03:01.742Z,24.30
2023-04-09T11:05:55.140Z,25.10
2023-04-09T11:08:48.349Z,26.10
2023-04-09T11:11:38.912Z,24.00
2023-04-09T11:14:29.175Z,25.80
2023-04-09T11:17:19.840Z,24.40
2023-04-09T11:20:11.323Z,26.10
2023-04-09T11:23:01.788Z,27.00
2023-04-09T11:25:52.506Z,27.10
2023-04-09T11:28:45.366Z,27.20
2023-04-09T11:31:35.951Z,26.40
2023-04-09T11:34:29.770Z,26.70
2023-04-09T11:37:20.090Z,26.30
2023-04-09T11:40:17.731Z,27.10
2023-04-09T11:43:10.927Z,26.70
2023-04-09T11:46:01.766Z,27.40
2023-04-09T11:48:52.453Z,27.40
2023-04-09T11:51:43.284Z,27.90
2023-04-09T11:54:35.513Z,27.80
2023-04-09T11:57:26.532Z,28.40
2023-04-09T12:00:18.036Z,28.60
2023-04-09T12:03:09.132Z,29.20
2023-04-09T12:06:00.008Z,28.20
2023-04-09T12:08:53.771Z,29.00
2023-04-09T12:11:46.381Z,28.70
2023-04-09T12:14:36.977Z,29.10
2023-04-09T12:17:27.427Z,28.90
2023-04-09T12:20:32.924Z,29.70
2023-04-09T12:23:23.434Z,29.20
2023-04-09T12:26:14.759Z,28.60
2023-04-09T12:29:05.112Z,27.30
2023-04-09T12:31:56.192Z,30.30
2023-04-09T12:34:47.563Z,30.50
2023-04-09T12:37:38.071Z,31.30
2023-04-09T12:40:29.164Z,31.60
2023-04-09T12:43:19.981Z,31.70
2023-04-09T12:46:10.569Z,32.70
2023-04-09T12:49:01.185Z,32.80
2023-04-09T12:51:52.242Z,31.70
2023-04-09T12:54:44.541Z,32.10
2023-04-09T12:57:35.037Z,33.50
2023-04-09T13:00:25.753Z,33.80
2023-04-09T13:03:17.324Z,33.50
2023-04-09T13:06:09.342Z,33.80
2023-04-09T13:09:00.468Z,32.60
2023-04-09T13:11:51.711Z,34.70
2023-04-09T13:14:44.134Z,32.80
2023-04-09T13:17:34.846Z,33.30
2023-04-09T13:20:25.552Z,32.30
2023-04-09T13:23:16.071Z,32.80
2023-04-09T13:26:07.098Z,32.70
2023-04-09T13:28:57.646Z,33.30
2023-04-09T13:31:48.195Z,33.20
2023-04-09T13:34:38.954Z,32.30
2023-04-09T13:37:29.778Z,33.40
2023-04-09T13:40:20.700Z,32.20
2023-04-09T13:43:11.263Z,31.80
2023-04-09T13:46:01.911Z,32.20
2023-04-09T13:48:52.972Z,33.50
2023-04-09T13:51:43.884Z,31.50
2023-04-09T13:54:34.633Z,32.90
2023-04-09T13:57:25.196Z,32.80
2023-04-09T14:00:16.996Z,29.40
2023-04-09T14:03:08.042Z,29.90
2023-04-09T14:05:58.526Z,30.10
2023-04-09T14:08:49.692Z,30.50
2023-04-09T14:11:40.228Z,30.50
2023-04-09T14:14:30.797Z,32.40
2023-04-09T14:17:21.731Z,32.90
2023-04-09T14:20:13.203Z,33.20
2023-04-09T14:23:03.794Z,34.30
2023-04-09T14:25:54.597Z,35.50
2023-04-09T14:28:44.975Z,35.80
2023-04-09T14:31:35.438Z,34.50
2023-04-09T14:34:25.829Z,34.60
2023-04-09T14:37:16.488Z,33.80
2023-04-09T14:40:08.379Z,34.80
2023-04-09T14:42:58.792Z,33.40
2023-04-09T14:45:49.174Z,33.60
2023-04-09T14:48:40.596Z,33.10
2023-04-09T14:51:31.696Z,33.10
2023-04-09T14:54:22.141Z,33.60
2023-04-09T14:57:12.858Z,34.80
2023-04-09T15:00:06.078Z,34.10
2023-04-09T15:02:56.939Z,33.30
2023-04-09T15:05:48.130Z,33.00
2023-04-09T15:08:39.082Z,32.10
2023-04-09T15:11:29.960Z,32.40
2023-04-09T15:14:21.015Z,32.90
2023-04-09T15:17:11.420Z,31.70
2023-04-09T15:20:01.900Z,31.60
2023-04-09T15:22:52.538Z,31.60
2023-04-09T15:25:42.995Z,31.70
2023-04-09T15:28:33.497Z,32.10
2023-04-09T15:31:23.933Z,30.50
2023-04-09T15:34:15.243Z,31.10
2023-04-09T15:37:05.875Z,31.10
2023-04-09T15:39:56.647Z,30.60
2023-04-09T15:42:47.462Z,30.70
2023-04-09T15:45:38.200Z,31.80
2023-04-09T15:48:28.692Z,32.90
2023-04-09T15:51:19.182Z,32.30
2023-04-09T15:54:09.657Z,32.70
2023-04-09T15:57:00.190Z,33.90
2023-04-09T15:59:52.043Z,32.10
2023-04-09T16:02:42.832Z,33.30
2023-04-09T16:05:33.312Z,33.20
2023-04-09T16:08:23.919Z,32.00
2023-04-09T16:11:15.072Z,32.10
2023-04-09T16:14:05.883Z,33.40
2023-04-09T16:16:56.349Z,33.90
2023-04-09T16:19:46.888Z,33.90
2023-04-09T16:22:37.479Z,32.60
2023-04-09T16:25:28.106Z,32.90
2023-04-09T16:28:19.477Z,32.00
2023-04-09T16:31:10.141Z,33.30
2023-04-09T16:34:00.722Z,34.70
2023-04-09T16:36:51.753Z,33.50
2023-04-09T16:39:42.361Z,34.10
2023-04-09T16:42:33.256Z,33.70
2023-04-09T16:45:23.950Z,35.00
2023-04-09T16:48:14.626Z,34.10
2023-04-09T16:51:05.039Z,34.60
2023-04-09T16:53:55.838Z,33.20
2023-04-09T16:56:46.505Z,34.70
2023-04-09T16:59:36.761Z,33.50
2023-04-09T17:02:27.786Z,36.40
2023-04-09T17:05:18.581Z,35.80
2023-04-09T17:08:09.315Z,35.50
2023-04-09T17:11:02.998Z,36.70
2023-04-09T17:13:54.445Z,36.30
2023-04-09T17:16:45.829Z,35.50
2023-04-09T17:19:36.828Z,35.20
2023-04-09T17:22:27.276Z,34.20
2023-04-09T17:25:18.247Z,35.50
2023-04-09T17:28:09.663Z,35.90
2023-04-09T17:31:00.186Z,36.50
2023-04-09T17:33:51.017Z,37.10
2023-04-09T17:36:42.586Z,37.60
2023-04-09T17:39:33.307Z,37.20
2023-04-09T17:42:24.626Z,36.30
2023-04-09T17:45:16.166Z,37.00
2023-04-09T17:48:07.026Z,37.30
2023-04-09T17:50:58.232Z,36.60
2023-04-09T17:53:48.815Z,35.60
2023-04-09T17:56:39.167Z,35.60
2023-04-09T17:59:29.968Z,35.40
2023-04-09T18:02:21.724Z,38.60
2023-04-09T18:05:13.710Z,36.40
2023-04-09T18:08:04.578Z,37.10
2023-04-09T18:11:11.528Z,36.50
2023-04-09T18:14:07.997Z,36.40
2023-04-09T18:16:58.311Z,37.00
2023-04-09T18:19:49.259Z,38.00
2023-04-09T18:22:40.040Z,37.00
2023-04-09T18:25:30.771Z,37.10
2023-04-09T18:28:21.452Z,34.20
2023-04-09T18:31:13.427Z,37.30
2023-04-09T18:34:03.835Z,34.30
2023-04-09T18:36:54.654Z,33.50
2023-04-09T18:39:45.187Z,36.10
2023-04-09T18:42:36.033Z,35.10
2023-04-09T18:45:26.722Z,36.20
2023-04-09T18:48:17.215Z,35.20
2023-04-09T18:51:08.499Z,36.40
2023-04-09T18:54:00.673Z,37.10
2023-04-09T18:56:51.386Z,39.50
2023-04-09T18:59:42.278Z,40.40
2023-04-09T19:02:33.376Z,39.80
2023-04-09T19:05:24.186Z,46.00
2023-04-09T19:08:14.995Z,45.00
2023-04-09T19:11:06.323Z,43.70
2023-04-09T19:13:57.236Z,41.10
2023-04-09T19:16:47.968Z,39.90
2023-04-09T19:19:38.398Z,41.80
2023-04-09T19:22:29.971Z,38.30
2023-04-09T19:25:20.360Z,41.30
2023-04-09T19:28:11.675Z,41.10
2023-04-09T19:31:03.616Z,40.70
2023-04-09T19:33:54.530Z,39.40
2023-04-09T19:36:44.953Z,38.20
2023-04-09T19:39:35.799Z,39.00
2023-04-09T19:42:28.647Z,40.10
2023-04-09T19:45:19.880Z,40.60
2023-04-09T19:48:10.843Z,42.70
2023-04-09T19:51:02.110Z,46.80
2023-04-09T19:53:52.932Z,46.20
2023-04-09T19:56:43.479Z,47.00
2023-04-09T19:59:37.459Z,48.50
2023-04-09T20:02:28.300Z,49.70
2023-04-09T20:05:21.042Z,51.60
2023-04-09T20:08:15.616Z,54.30
2023-04-09T20:11:06.964Z,53.30
2023-04-09T20:13:58.563Z,53.90
2023-04-09T20:16:49.302Z,53.20
2023-04-09T20:19:43.308Z,52.90
2023-04-09T20:22:37.034Z,50.40
2023-04-09T20:25:34.973Z,52.40
2023-04-09T20:28:26.113Z,54.50
2023-04-09T20:31:17.406Z,51.80
2023-04-09T20:34:09.478Z,49.20
2023-04-09T20:37:00.643Z,50.80
2023-04-09T20:39:51.600Z,49.50
2023-04-09T20:42:42.846Z,49.50
2023-04-09T20:45:35.259Z,48.60
2023-04-09T20:48:26.514Z,47.30
2023-04-09T20:51:18.194Z,47.90
2023-04-09T20:54:09.449Z,48.50
2023-04-09T20:57:01.820Z,46.10
2023-04-09T20:59:53.999Z,45.80
2023-04-09T21:02:45.092Z,48.10
2023-04-09T21:05:36.865Z,50.30
2023-04-09T21:08:27.647Z,49.40
2023-04-09T21:11:18.033Z,49.30
2023-04-09T21:14:10.950Z,50.70
2023-04-09T21:17:01.446Z,50.30
2023-04-09T21:19:53.281Z,49.50
2023-04-09T21:22:43.814Z,49.50
2023-04-09T21:25:37.003Z,49.50
2023-04-09T21:28:28.477Z,47.90
2023-04-09T21:31:18.821Z,47.20
2023-04-09T21:34:09.287Z,48.80
2023-04-09T21:36:59.834Z,47.30
2023-04-09T21:39:50.420Z,47.60
2023-04-09T21:42:41.136Z,47.60
2023-04-09T21:45:32.190Z,48.60
2023-04-09T21:48:22.748Z,47.80
2023-04-09T21:51:13.597Z,47.90
2023-04-09T21:54:07.718Z,47.10
2023-04-09T21:56:58.328Z,46.60
2023-04-09T21:59:48.760Z,46.70
2023-04-09T22:02:40.273Z,46.70
2023-04-09T22:05:31.201Z,48.30
2023-04-09T22:08:21.611Z,45.80
2023-04-09T22:11:12.198Z,48.40
2023-04-09T22:14:02.584Z,47.20
2023-04-09T22:16:54.150Z,47.30
2023-04-09T22:19:44.674Z,47.20
2023-04-09T22:22:35.176Z,46.30
2023-04-09T22:25:26.084Z,46.20
2023-04-09T22:28:16.813Z,46.30
2023-04-09T22:31:07.887Z,46.20
2023-04-09T22:34:10.079Z,45.70
2023-04-09T22:37:07.933Z,44.80
2023-04-09T22:39:58.843Z,46.40
2023-04-09T22:42:50.068Z,47.20
2023-04-09T22:45:40.759Z,48.60
2023-04-09T22:48:31.371Z,47.90
2023-04-09T22:51:23.674Z,49.80
2023-04-09T22:54:14.246Z,49.40
2023-04-09T22:57:04.752Z,46.50
2023-04-09T22:59:55.446Z,49.50
2023-04-09T23:02:47.499Z,48.50
2023-04-09T23:05:38.251Z,46.10
2023-04-09T23:08:28.702Z,44.80
2023-04-09T23:11:19.168Z,46.60
2023-04-09T23:14:09.502Z,48.00
2023-04-09T23:16:59.993Z,46.80
2023-04-09T23:19:50.306Z,46.40
2023-04-09T23:22:40.892Z,45.90
2023-04-09T23:25:31.478Z,46.30
2023-04-09T23:28:22.211Z,45.90
2023-04-09T23:31:12.792Z,47.20
2023-04-09T23:34:03.813Z,45.30
2023-04-09T23:36:54.324Z,45.50
2023-04-09T23:39:44.784Z,44.80
2023-04-09T23:42:35.247Z,26.70
2023-04-09T23:45:25.666Z,46.10
2023-04-09T23:48:16.274Z,45.50
2023-04-09T23:51:07.378Z,46.50
2023-04-09T23:53:58.022Z,45.60
2023-04-09T23:56:48.647Z,48.30
2023-04-09T23:59:39.475Z,47.50
